createdAt,value
2019-02-14T00:01:50.758Z,102109.00
2019-02-14T00:04:23.615Z,102106.00
2019-02-14T00:06:56.443Z,102118.00
2019-02-14T00:09:29.243Z,102108.00
2019-02-14T00:12:03.822Z,102112.00
2019-02-14T00:14:36.760Z,102114.00
2019-02-14T00:17:09.619Z,102115.00
2019-02-14T00:19:44.268Z,102119.00
2019-02-14T00:22:17.096Z,102119.00
2019-02-14T00:24:51.534Z,102114.00
2019-02-14T00:27:24.365Z,102110.00
2019-02-14T00:29:57.305Z,102106.00
2019-02-14T00:32:30.133Z,102114.00
2019-02-14T00:35:03.184Z,102108.00
2019-02-14T00:37:36.035Z,102108.00
2019-02-14T00:40:08.853Z,102088.00
2019-02-14T00:42:42.797Z,102107.00
2019-02-14T00:45:15.644Z,102102.00
2019-02-14T00:47:48.439Z,102096.00
2019-02-14T00:50:21.295Z,102093.00
2019-02-14T00:52:54.107Z,102090.00
2019-02-14T00:55:26.909Z,102092.00
2019-02-14T00:57:59.756Z,102083.00
2019-02-14T01:00:32.683Z,102091.00
2019-02-14T01:03:05.507Z,102091.00
2019-02-14T01:05:40.672Z,102091.00
2019-02-14T01:08:13.455Z,102084.00
2019-02-14T01:10:46.285Z,102083.00
2019-02-14T01:13:19.895Z,102082.00
2019-02-14T01:15:52.842Z,102089.00
2019-02-14T01:18:28.751Z,102081.00
2019-02-14T01:21:01.586Z,102088.00
2019-02-14T01:23:34.383Z,102095.00
2019-02-14T01:26:08.287Z,102095.00
2019-02-14T01:28:41.157Z,102082.00
2019-02-14T01:31:16.161Z,102083.00
2019-02-14T01:33:49.020Z,102089.00
2019-02-14T01:36:23.274Z,102088.00
2019-02-14T01:38:56.095Z,102086.00
2019-02-14T01:41:29.364Z,102096.00
2019-02-14T01:44:02.210Z,102097.00
2019-02-14T01:46:34.998Z,102087.00
2019-02-14T01:49:07.802Z,102090.00
2019-02-14T01:51:40.624Z,102094.00
2019-02-14T01:54:13.478Z,102087.00
2019-02-14T01:56:46.323Z,102088.00
2019-02-14T01:59:19.122Z,102086.00
2019-02-14T02:01:52.028Z,102085.00
2019-02-14T02:04:24.886Z,102088.00
2019-02-14T02:06:57.684Z,102086.00
2019-02-14T02:09:30.543Z,102088.00
2019-02-14T02:12:03.434Z,102076.00
2019-02-14T02:14:36.323Z,102087.00
2019-02-14T02:17:09.163Z,102094.00
2019-02-14T02:19:41.989Z,102087.00
2019-02-14T02:22:14.802Z,102086.00
2019-02-14T02:24:47.672Z,102087.00
2019-02-14T02:27:20.523Z,102102.00
2019-02-14T02:29:53.359Z,102102.00
2019-02-14T02:32:26.195Z,102098.00
2019-02-14T02:34:59.040Z,102111.00
2019-02-14T02:37:31.861Z,102109.00
2019-02-14T02:40:05.779Z,102099.00
2019-02-14T02:42:38.579Z,102105.00
2019-02-14T02:45:11.962Z,102103.00
2019-02-14T02:47:44.769Z,102109.00
2019-02-14T02:50:17.568Z,102103.00
2019-02-14T02:52:50.388Z,102095.00
2019-02-14T02:55:23.198Z,102100.00
2019-02-14T02:57:56.013Z,102111.00
2019-02-14T03:00:28.827Z,102106.00
2019-02-14T03:03:01.635Z,102103.00
2019-02-14T03:05:34.455Z,102102.00
2019-02-14T03:08:07.272Z,102098.00
2019-02-14T03:10:40.138Z,102091.00
2019-02-14T03:13:12.931Z,102110.00
2019-02-14T03:15:45.770Z,102112.00
2019-02-14T03:18:18.581Z,102113.00
2019-02-14T03:20:51.381Z,102110.00
2019-02-14T03:23:24.183Z,102113.00
2019-02-14T03:25:57.007Z,102114.00
2019-02-14T03:28:32.816Z,102115.00
2019-02-14T03:31:05.651Z,102115.00
2019-02-14T03:33:38.527Z,102113.00
2019-02-14T03:36:18.932Z,102106.00
2019-02-14T03:38:46.073Z,102100.00
2019-02-14T03:41:19.222Z,102100.00
2019-02-14T03:43:52.195Z,102100.00
2019-02-14T03:46:24.987Z,102098.00
2019-02-14T03:48:57.776Z,102097.00
2019-02-14T03:51:30.577Z,102100.00
2019-02-14T03:54:03.402Z,102117.00
2019-02-14T03:56:36.246Z,102107.00
2019-02-14T03:59:09.034Z,102105.00
2019-02-14T04:01:41.839Z,102101.00
2019-02-14T04:04:14.676Z,102107.00
2019-02-14T04:06:47.518Z,102102.00
2019-02-14T04:09:20.299Z,102099.00
2019-02-14T04:11:53.126Z,102089.00
2019-02-14T04:14:34.519Z,102085.00
2019-02-14T04:17:07.385Z,102102.00
2019-02-14T04:19:40.198Z,102099.00
2019-02-14T04:22:13.032Z,102114.00
2019-02-14T04:24:45.833Z,102116.00
2019-02-14T04:27:18.637Z,102113.00
2019-02-14T04:29:51.436Z,102125.00
2019-02-14T04:32:24.224Z,102118.00
2019-02-14T04:34:57.036Z,102125.00
2019-02-14T04:37:29.866Z,102127.00
2019-02-14T04:40:06.020Z,102126.00
2019-02-14T04:42:38.951Z,102130.00
2019-02-14T04:45:12.696Z,102122.00
2019-02-14T04:47:45.534Z,102119.00
2019-02-14T04:50:18.370Z,102116.00
2019-02-14T04:52:51.193Z,102120.00
2019-02-14T04:55:24.007Z,102134.00
2019-02-14T04:57:56.814Z,102119.00
2019-02-14T05:00:29.621Z,102120.00
2019-02-14T05:03:02.431Z,102127.00
2019-02-14T05:05:35.263Z,102131.00
2019-02-14T05:08:08.065Z,102119.00
2019-02-14T05:10:40.875Z,102128.00
2019-02-14T05:13:13.699Z,102122.00
2019-02-14T05:15:46.502Z,102125.00
2019-02-14T05:18:19.318Z,102139.00
2019-02-14T05:20:52.192Z,102144.00
2019-02-14T05:23:25.016Z,102134.00
2019-02-14T05:25:57.836Z,102148.00
2019-02-14T05:28:31.327Z,102143.00
2019-02-14T05:31:05.331Z,102145.00
2019-02-14T05:33:38.140Z,102144.00
2019-02-14T05:36:10.955Z,102149.00
2019-02-14T05:38:43.807Z,102150.00
2019-02-14T05:41:19.470Z,102154.00
2019-02-14T05:43:52.293Z,102158.00
2019-02-14T05:46:25.102Z,102158.00
2019-02-14T05:48:58.000Z,102159.00
2019-02-14T05:51:30.835Z,102154.00
2019-02-14T05:54:03.982Z,102158.00
2019-02-14T05:56:36.794Z,102151.00
2019-02-14T05:59:09.603Z,102150.00
2019-02-14T06:01:42.410Z,102159.00
2019-02-14T06:04:18.056Z,102155.00
2019-02-14T06:06:50.903Z,102156.00
2019-02-14T06:09:23.751Z,102155.00
2019-02-14T06:11:56.611Z,102151.00
2019-02-14T06:14:29.654Z,102163.00
2019-02-14T06:17:02.466Z,102154.00
2019-02-14T06:19:35.292Z,102155.00
2019-02-14T06:22:08.115Z,102166.00
2019-02-14T06:24:40.931Z,102158.00
2019-02-14T06:27:13.730Z,102154.00
2019-02-14T06:29:46.558Z,102164.00
2019-02-14T06:32:19.414Z,102163.00
2019-02-14T06:34:54.533Z,102176.00
2019-02-14T06:37:27.376Z,102172.00
2019-02-14T06:40:00.307Z,102175.00
2019-02-14T06:42:33.082Z,102168.00
2019-02-14T06:45:08.876Z,102175.00
2019-02-14T06:47:41.702Z,102175.00
2019-02-14T06:50:14.617Z,102179.00
2019-02-14T06:52:47.442Z,102181.00
2019-02-14T06:55:22.076Z,102187.00
2019-02-14T06:57:54.923Z,102191.00
2019-02-14T07:00:27.772Z,102196.00
2019-02-14T07:03:00.646Z,102195.00
2019-02-14T07:05:33.466Z,102198.00
2019-02-14T07:08:06.411Z,102208.00
2019-02-14T07:10:39.228Z,102215.00
2019-02-14T07:13:12.057Z,102210.00
2019-02-14T07:15:44.875Z,102208.00
2019-02-14T07:18:17.767Z,102216.00
2019-02-14T07:20:53.563Z,102215.00
2019-02-14T07:23:26.407Z,102223.00
2019-02-14T07:25:59.249Z,102219.00
2019-02-14T07:28:32.048Z,102221.00
2019-02-14T07:31:05.030Z,102225.00
2019-02-14T07:33:37.881Z,102229.00
2019-02-14T07:36:10.702Z,102234.00
2019-02-14T07:38:43.649Z,102229.00
2019-02-14T07:41:16.559Z,102237.00
2019-02-14T07:43:49.407Z,102248.00
2019-02-14T07:46:24.517Z,102243.00
2019-02-14T07:48:57.648Z,102255.00
2019-02-14T07:51:30.465Z,102254.00
2019-02-14T07:54:03.289Z,102260.00
2019-02-14T07:56:36.117Z,102261.00
2019-02-14T07:59:08.951Z,102269.00
2019-02-14T08:01:42.789Z,102268.00
2019-02-14T08:04:15.600Z,102278.00
2019-02-14T08:06:48.434Z,102280.00
2019-02-14T08:09:25.480Z,102280.00
2019-02-14T08:11:58.294Z,102290.00
2019-02-14T08:14:31.148Z,102280.00
2019-02-14T08:17:03.960Z,102277.00
2019-02-14T08:19:36.831Z,102277.00
2019-02-14T08:22:09.625Z,102296.00
2019-02-14T08:24:42.474Z,102297.00
2019-02-14T08:27:15.307Z,102302.00
2019-02-14T08:29:48.120Z,102295.00
2019-02-14T08:32:21.052Z,102289.00
2019-02-14T08:34:53.894Z,102296.00
2019-02-14T08:37:26.737Z,102299.00
2019-02-14T08:40:01.002Z,102304.00
2019-02-14T08:42:33.739Z,102303.00
2019-02-14T08:45:08.299Z,102310.00
2019-02-14T08:47:41.100Z,102312.00
2019-02-14T08:50:13.953Z,102314.00
2019-02-14T08:52:46.895Z,102308.00
2019-02-14T08:55:19.751Z,102316.00
2019-02-14T08:57:52.552Z,102323.00
2019-02-14T09:00:25.718Z,102310.00
2019-02-14T09:02:58.549Z,102308.00
2019-02-14T09:05:31.482Z,102297.00
2019-02-14T09:08:04.302Z,102290.00
2019-02-14T09:10:37.156Z,102281.00
2019-02-14T09:13:17.041Z,102282.00
2019-02-14T09:15:46.351Z,102284.00
2019-02-14T09:18:19.190Z,102290.00
2019-02-14T09:20:52.019Z,102292.00
2019-02-14T09:23:24.856Z,102288.00
2019-02-14T09:25:57.720Z,102285.00
2019-02-14T09:28:30.567Z,102281.00
2019-02-14T09:31:05.162Z,102278.00
2019-02-14T09:33:38.006Z,102279.00
2019-02-14T09:36:10.972Z,102275.00
2019-02-14T09:38:43.796Z,102274.00
2019-02-14T09:41:16.632Z,102266.00
2019-02-14T09:43:49.447Z,102275.00
2019-02-14T09:46:22.279Z,102279.00
2019-02-14T09:48:55.080Z,102293.00
2019-02-14T09:51:27.903Z,102288.00
2019-02-14T09:54:00.723Z,102290.00
2019-02-14T09:56:33.547Z,102279.00
2019-02-14T09:59:06.372Z,102289.00
2019-02-14T10:01:39.226Z,102283.00
2019-02-14T10:04:12.052Z,102281.00
2019-02-14T10:06:44.873Z,102269.00
2019-02-14T10:09:17.692Z,102275.00
2019-02-14T10:11:52.069Z,102257.00
2019-02-14T10:14:24.880Z,102270.00
2019-02-14T10:16:57.697Z,102280.00
2019-02-14T10:19:30.536Z,102290.00
2019-02-14T10:22:03.357Z,102283.00
2019-02-14T10:24:36.182Z,102283.00
2019-02-14T10:27:09.045Z,102272.00
2019-02-14T10:29:41.841Z,102289.00
2019-02-14T10:32:14.738Z,102293.00
2019-02-14T10:34:47.534Z,102300.00
2019-02-14T10:37:20.366Z,102291.00
2019-02-14T10:39:53.244Z,102296.00
2019-02-14T10:42:26.097Z,102291.00
2019-02-14T10:44:58.908Z,102284.00
2019-02-14T10:47:31.745Z,102283.00
2019-02-14T10:50:06.231Z,102276.00
2019-02-14T10:52:39.058Z,102279.00
2019-02-14T10:55:13.206Z,102279.00
2019-02-14T10:57:46.055Z,102273.00
2019-02-14T11:00:20.817Z,102276.00
2019-02-14T11:02:53.660Z,102277.00
2019-02-14T11:05:26.501Z,102273.00
2019-02-14T11:07:59.351Z,102281.00
2019-02-14T11:10:32.229Z,102282.00
2019-02-14T11:13:05.038Z,102278.00
2019-02-14T11:15:37.854Z,102276.00
2019-02-14T11:18:10.810Z,102268.00
2019-02-14T11:20:43.668Z,102270.00
2019-02-14T11:23:16.499Z,102271.00
2019-02-14T11:25:49.354Z,102266.00
2019-02-14T11:28:22.286Z,102259.00
2019-02-14T11:30:55.153Z,102261.00
2019-02-14T11:33:28.020Z,102254.00
2019-02-14T11:36:00.885Z,102260.00
2019-02-14T11:38:40.358Z,102246.00
2019-02-14T11:41:08.486Z,102233.00
2019-02-14T11:43:41.318Z,102238.00
2019-02-14T11:46:14.156Z,102247.00
2019-02-14T11:48:48.788Z,102244.00
2019-02-14T11:51:21.610Z,102243.00
2019-02-14T11:53:54.417Z,102252.00
2019-02-14T11:56:29.153Z,102267.00
2019-02-14T11:59:02.000Z,102242.00
2019-02-14T12:01:34.875Z,102239.00
2019-02-14T12:04:07.795Z,102228.00
2019-02-14T12:06:42.675Z,102240.00
2019-02-14T12:09:15.531Z,102233.00
2019-02-14T12:11:48.423Z,102231.00
2019-02-14T12:14:21.241Z,102232.00
2019-02-14T12:16:54.075Z,102239.00
2019-02-14T12:19:26.900Z,102242.00
2019-02-14T12:21:59.727Z,102237.00
2019-02-14T12:24:32.556Z,102222.00
2019-02-14T12:27:05.442Z,102212.00
2019-02-14T12:29:38.244Z,102211.00
2019-02-14T12:32:11.136Z,102195.00
2019-02-14T12:34:44.105Z,102197.00
2019-02-14T12:37:17.033Z,102193.00
2019-02-14T12:39:50.965Z,102194.00
2019-02-14T12:42:23.835Z,102191.00
2019-02-14T12:44:56.656Z,102193.00
2019-02-14T12:47:31.240Z,102189.00
2019-02-14T12:50:05.152Z,102182.00
2019-02-14T12:52:40.478Z,102177.00
2019-02-14T12:55:13.300Z,102171.00
2019-02-14T12:57:47.846Z,102174.00
2019-02-14T13:00:21.202Z,102175.00
2019-02-14T13:02:54.019Z,102176.00
2019-02-14T13:05:26.906Z,102171.00
2019-02-14T13:07:59.899Z,102164.00
2019-02-14T13:10:32.840Z,102155.00
2019-02-14T13:13:05.662Z,102155.00
2019-02-14T13:15:39.586Z,102158.00
2019-02-14T13:18:12.392Z,102159.00
2019-02-14T13:20:46.230Z,102157.00
2019-02-14T13:23:19.079Z,102151.00
2019-02-14T13:25:51.932Z,102152.00
2019-02-14T13:28:24.809Z,102142.00
2019-02-14T13:30:58.277Z,102149.00
2019-02-14T13:33:31.086Z,102137.00
2019-02-14T13:36:05.078Z,102132.00
2019-02-14T13:38:37.999Z,102129.00
2019-02-14T13:41:10.865Z,102121.00
2019-02-14T13:43:43.719Z,102130.00
2019-02-14T13:46:16.551Z,102126.00
2019-02-14T13:48:49.499Z,102132.00
2019-02-14T13:51:22.335Z,102113.00
2019-02-14T13:53:55.188Z,102103.00
2019-02-14T13:56:28.103Z,102100.00
2019-02-14T13:59:01.111Z,102103.00
2019-02-14T14:01:33.962Z,102104.00
2019-02-14T14:04:09.565Z,102105.00
2019-02-14T14:06:42.488Z,102111.00
2019-02-14T14:09:18.342Z,102121.00
2019-02-14T14:11:51.188Z,102128.00
2019-02-14T14:14:24.045Z,102116.00
2019-02-14T14:16:56.920Z,102122.00
2019-02-14T14:19:30.492Z,102116.00
2019-02-14T14:22:03.448Z,102117.00
2019-02-14T14:24:36.321Z,102116.00
2019-02-14T14:27:09.202Z,102108.00
2019-02-14T14:29:42.068Z,102098.00
2019-02-14T14:32:14.976Z,102096.00
2019-02-14T14:34:50.719Z,102095.00
2019-02-14T14:37:23.615Z,102105.00
2019-02-14T14:39:56.456Z,102086.00
2019-02-14T14:43:07.194Z,102091.00
2019-02-14T14:45:49.122Z,102077.00
2019-02-14T14:48:25.661Z,102081.00
2019-02-14T14:50:58.468Z,102096.00
2019-02-14T14:53:31.378Z,102090.00
2019-02-14T14:56:08.125Z,102085.00
2019-02-14T14:58:45.598Z,102085.00
2019-02-14T15:01:18.565Z,102073.00
2019-02-14T15:03:52.185Z,102075.00
2019-02-14T15:06:25.255Z,102076.00
2019-02-14T15:08:58.081Z,102066.00
2019-02-14T15:11:30.916Z,102072.00
2019-02-14T15:14:06.782Z,102071.00
2019-02-14T15:16:39.613Z,102075.00
2019-02-14T15:19:12.453Z,102065.00
2019-02-14T15:21:45.405Z,102062.00
2019-02-14T15:24:18.273Z,102070.00
2019-02-14T15:26:51.206Z,102068.00
2019-02-14T15:29:24.059Z,102067.00
2019-02-14T15:31:56.982Z,102059.00
2019-02-14T15:34:32.451Z,102058.00
2019-02-14T15:37:05.355Z,102060.00
2019-02-14T15:39:40.996Z,102062.00
2019-02-14T15:42:13.941Z,102067.00
2019-02-14T15:44:46.779Z,102053.00
2019-02-14T15:47:19.697Z,102058.00
2019-02-14T15:49:52.694Z,102058.00
2019-02-14T15:52:27.346Z,102044.00
2019-02-14T15:55:02.246Z,102039.00
2019-02-14T15:57:35.271Z,102032.00
2019-02-14T16:00:10.602Z,102022.00
2019-02-14T16:02:47.959Z,102026.00
2019-02-14T16:05:21.336Z,102033.00
2019-02-14T16:07:54.255Z,102039.00
2019-02-14T16:10:27.801Z,102029.00
2019-02-14T16:13:01.903Z,102035.00
2019-02-14T16:15:34.754Z,102036.00
2019-02-14T16:18:09.534Z,102033.00
2019-02-14T16:20:44.167Z,102035.00
2019-02-14T16:23:17.132Z,102035.00
2019-02-14T16:25:51.681Z,102034.00
2019-02-14T16:28:24.798Z,102031.00
2019-02-14T16:30:57.651Z,102034.00
2019-02-14T16:33:30.581Z,102037.00
2019-02-14T16:36:03.428Z,102044.00
2019-02-14T16:38:37.194Z,102034.00
2019-02-14T16:41:10.048Z,102041.00
2019-02-14T16:43:42.912Z,102042.00
2019-02-14T16:46:16.016Z,102039.00
2019-02-14T16:48:48.874Z,102047.00
2019-02-14T16:51:21.723Z,102048.00
2019-02-14T16:53:54.693Z,102059.00
2019-02-14T16:56:27.538Z,102049.00
2019-02-14T16:59:00.414Z,102060.00
2019-02-14T17:01:33.248Z,102050.00
2019-02-14T17:04:06.106Z,102057.00
2019-02-14T17:06:38.962Z,102061.00
2019-02-14T17:09:12.028Z,102055.00
2019-02-14T17:11:44.877Z,102059.00
2019-02-14T17:14:17.770Z,102059.00
2019-02-14T17:16:50.792Z,102053.00
2019-02-14T17:19:25.236Z,102048.00
2019-02-14T17:21:58.174Z,102059.00
2019-02-14T17:24:31.038Z,102054.00
2019-02-14T17:27:03.927Z,102049.00
2019-02-14T17:29:36.912Z,102052.00
2019-02-14T17:32:09.865Z,102053.00
2019-02-14T17:34:42.785Z,102047.00
2019-02-14T17:37:15.645Z,102055.00
2019-02-14T17:39:50.049Z,102060.00
2019-02-14T17:45:30.715Z,102053.00
2019-02-14T17:48:03.577Z,102049.00
2019-02-14T17:50:36.508Z,102055.00
2019-02-14T17:53:09.368Z,102060.00
2019-02-14T17:55:42.263Z,102063.00
2019-02-14T17:58:15.156Z,102069.00
2019-02-14T18:00:48.028Z,102068.00
2019-02-14T18:03:23.023Z,102075.00
2019-02-14T18:05:55.917Z,102074.00
2019-02-14T18:08:28.926Z,102067.00
2019-02-14T18:11:01.846Z,102065.00
2019-02-14T18:13:34.727Z,102068.00
2019-02-14T18:16:07.616Z,102076.00
2019-02-14T18:18:40.544Z,102074.00
2019-02-14T18:21:13.399Z,102072.00
2019-02-14T18:23:46.282Z,102069.00
2019-02-14T18:26:19.167Z,102077.00
2019-02-14T18:28:52.033Z,102075.00
2019-02-14T18:31:24.920Z,102065.00
2019-02-14T18:33:57.924Z,102063.00
2019-02-14T18:36:30.751Z,102068.00
2019-02-14T18:39:06.186Z,102067.00
2019-02-14T18:41:39.010Z,102054.00
2019-02-14T18:44:15.056Z,102058.00
2019-02-14T18:46:48.053Z,102050.00
2019-02-14T18:49:20.884Z,102055.00
2019-02-14T18:51:53.722Z,102048.00
2019-02-14T18:54:28.940Z,102048.00
2019-02-14T18:57:01.826Z,102050.00
2019-02-14T18:59:34.696Z,102052.00
2019-02-14T19:02:07.574Z,102057.00
2019-02-14T19:04:40.429Z,102050.00
2019-02-14T19:07:13.346Z,102057.00
2019-02-14T19:09:46.424Z,102065.00
2019-02-14T19:12:19.306Z,102055.00
2019-02-14T19:14:52.347Z,102050.00
2019-02-14T19:17:27.707Z,102049.00
2019-02-14T19:20:00.586Z,102049.00
2019-02-14T19:22:33.496Z,102033.00
2019-02-14T19:25:06.661Z,102044.00
2019-02-14T19:27:39.553Z,102043.00
2019-02-14T19:30:14.434Z,102039.00
2019-02-14T19:32:47.492Z,102048.00
2019-02-14T19:35:23.211Z,102037.00
2019-02-14T19:37:56.305Z,102035.00
2019-02-14T19:40:29.169Z,102048.00
2019-02-14T19:43:02.090Z,102040.00
2019-02-14T19:45:36.772Z,102029.00
2019-02-14T19:48:09.787Z,102035.00
2019-02-14T19:50:42.721Z,102038.00
2019-02-14T19:53:15.597Z,102034.00
2019-02-14T19:55:48.440Z,102029.00
2019-02-14T19:58:22.410Z,102024.00
2019-02-14T20:00:55.433Z,102025.00
2019-02-14T20:03:28.425Z,102032.00
2019-02-14T20:06:01.288Z,102017.00
2019-02-14T20:08:34.150Z,102011.00
2019-02-14T20:11:07.025Z,102005.00
2019-02-14T20:13:49.101Z,102013.00
2019-02-14T20:16:14.717Z,102000.00
2019-02-14T20:18:47.674Z,102019.00
2019-02-14T20:21:21.436Z,102017.00
2019-02-14T20:23:54.489Z,102013.00
2019-02-14T20:26:27.327Z,102023.00
2019-02-14T20:29:02.372Z,102009.00
2019-02-14T20:31:35.259Z,102005.00
2019-02-14T20:34:10.032Z,102011.00
2019-02-14T20:36:47.981Z,102002.00
2019-02-14T20:39:24.050Z,102015.00
2019-02-14T20:41:56.934Z,102011.00
2019-02-14T20:44:32.666Z,102007.00
2019-02-14T20:47:09.535Z,102008.00
2019-02-14T20:49:42.485Z,102019.00
2019-02-14T20:52:18.484Z,102017.00
2019-02-14T20:54:53.255Z,102013.00
2019-02-14T20:57:27.369Z,102014.00
2019-02-14T21:00:00.518Z,102010.00
2019-02-14T21:02:33.457Z,101999.00
2019-02-14T21:05:06.996Z,102010.00
2019-02-14T21:07:40.003Z,102018.00
2019-02-14T21:10:14.340Z,102022.00
2019-02-14T21:12:47.217Z,102018.00
2019-02-14T21:15:20.194Z,102016.00
2019-02-14T21:17:53.071Z,102022.00
2019-02-14T21:20:26.006Z,102019.00
2019-02-14T21:22:58.949Z,102032.00
2019-02-14T21:25:31.967Z,102019.00
2019-02-14T21:28:04.764Z,102028.00
2019-02-14T21:30:37.613Z,102018.00
2019-02-14T21:33:10.516Z,102030.00
2019-02-14T21:35:43.429Z,102015.00
2019-02-14T21:38:16.369Z,102025.00
2019-02-14T21:40:49.245Z,102027.00
2019-02-14T21:43:23.971Z,102020.00
2019-02-14T21:45:56.885Z,102022.00
2019-02-14T21:48:29.831Z,102030.00
2019-02-14T21:51:02.722Z,102027.00
2019-02-14T21:53:36.639Z,102023.00
2019-02-14T21:56:09.522Z,102021.00
2019-02-14T21:58:42.356Z,102036.00
2019-02-14T22:01:17.109Z,102024.00
2019-02-14T22:03:50.117Z,102027.00
2019-02-14T22:06:24.223Z,102024.00
2019-02-14T22:08:58.181Z,102021.00
2019-02-14T22:11:34.340Z,102017.00
2019-02-14T22:14:06.241Z,102028.00
2019-02-14T22:16:39.203Z,102019.00
2019-02-14T22:19:12.106Z,102011.00
2019-02-14T22:21:44.945Z,102017.00
2019-02-14T22:24:17.789Z,102012.00
2019-02-14T22:26:50.658Z,102011.00
2019-02-14T22:29:24.675Z,102012.00
2019-02-14T22:31:57.616Z,102013.00
2019-02-14T22:34:30.430Z,102017.00
2019-02-14T22:37:03.289Z,102009.00
2019-02-14T22:39:36.128Z,102011.00
2019-02-14T22:42:08.996Z,102005.00
2019-02-14T22:44:41.818Z,102019.00
2019-02-14T22:47:14.794Z,102017.00
2019-02-14T22:49:48.625Z,102018.00
2019-02-14T22:52:21.447Z,102010.00
2019-02-14T22:54:54.339Z,102013.00
2019-02-14T22:57:27.176Z,102007.00
2019-02-14T23:00:00.041Z,102011.00
2019-02-14T23:02:32.908Z,102018.00
2019-02-14T23:05:06.619Z,102020.00
2019-02-14T23:07:39.457Z,102023.00
2019-02-14T23:10:12.326Z,102018.00
2019-02-14T23:12:45.156Z,102029.00
2019-02-14T23:15:18.067Z,102016.00
2019-02-14T23:17:50.885Z,102023.00
2019-02-14T23:20:23.705Z,102003.00
2019-02-14T23:22:56.491Z,101998.00
2019-02-14T23:25:29.331Z,102006.00
2019-02-14T23:28:02.134Z,102009.00
2019-02-14T23:30:36.102Z,102012.00
2019-02-14T23:33:08.924Z,102016.00
2019-02-14T23:35:41.767Z,102013.00
2019-02-14T23:38:14.566Z,102011.00
2019-02-14T23:40:47.391Z,102021.00
2019-02-14T23:43:20.184Z,102009.00
2019-02-14T23:45:53.076Z,102011.00
2019-02-14T23:48:25.866Z,102013.00
2019-02-14T23:50:58.698Z,102011.00
2019-02-14T23:53:31.487Z,102007.00
2019-02-14T23:56:04.310Z,102008.00
2019-02-14T23:58:37.127Z,102006.00
